createdAt,value
2022-09-18T00:01:27.456Z,11.50
2022-09-18T00:03:57.246Z,11.40
2022-09-18T00:06:26.406Z,11.40
2022-09-18T00:08:54.860Z,11.50
2022-09-18T00:11:23.610Z,11.50
2022-09-18T00:13:50.965Z,11.50
2022-09-18T00:16:20.285Z,11.50
2022-09-18T00:18:47.912Z,11.50
2022-09-18T00:21:17.923Z,11.60
2022-09-18T00:23:44.984Z,11.50
2022-09-18T00:26:13.334Z,11.50
2022-09-18T00:28:40.107Z,11.50
2022-09-18T00:31:13.111Z,11.50
2022-09-18T00:33:40.060Z,11.40
2022-09-18T00:36:11.652Z,11.50
2022-09-18T00:38:38.869Z,11.40
2022-09-18T00:41:15.123Z,11.40
2022-09-18T00:43:41.683Z,11.40
2022-09-18T00:46:09.654Z,11.50
2022-09-18T00:48:59.676Z,11.40
2022-09-18T00:51:26.567Z,11.40
2022-09-18T00:54:10.682Z,11.50
2022-09-18T00:56:37.776Z,11.40
2022-09-18T00:59:04.885Z,11.40
2022-09-18T01:01:31.472Z,11.50
2022-09-18T01:03:58.038Z,11.40
2022-09-18T01:06:39.870Z,11.40
2022-09-18T01:09:29.077Z,11.40
2022-09-18T01:12:15.920Z,11.40
2022-09-18T01:14:45.964Z,11.30
2022-09-18T01:17:25.658Z,11.40
2022-09-18T01:20:06.959Z,11.40
2022-09-18T01:23:11.171Z,11.40
2022-09-18T01:26:20.658Z,11.30
2022-09-18T01:29:05.511Z,11.40
2022-09-18T01:31:39.107Z,11.30
2022-09-18T01:34:16.195Z,11.30
2022-09-18T01:36:47.666Z,11.40
2022-09-18T01:39:22.950Z,11.40
2022-09-18T01:41:51.345Z,11.40
2022-09-18T01:44:23.618Z,11.40
2022-09-18T01:46:52.130Z,11.40
2022-09-18T01:49:25.751Z,11.40
2022-09-18T01:52:12.997Z,11.40
2022-09-18T01:54:43.265Z,11.40
2022-09-18T01:57:13.749Z,11.30
2022-09-18T01:59:46.257Z,11.40
2022-09-18T02:02:24.390Z,11.40
2022-09-18T02:04:57.838Z,11.40
2022-09-18T02:07:47.480Z,11.50
2022-09-18T02:10:14.141Z,11.40
2022-09-18T02:12:42.771Z,11.50
2022-09-18T02:15:13.259Z,11.50
2022-09-18T02:17:56.309Z,11.40
2022-09-18T02:20:29.649Z,11.40
2022-09-18T02:22:59.994Z,11.40
2022-09-18T02:25:31.523Z,11.40
2022-09-18T02:27:58.567Z,11.40
2022-09-18T02:30:26.899Z,11.40
2022-09-18T02:32:55.673Z,11.30
2022-09-18T02:35:25.294Z,11.30
2022-09-18T02:37:59.779Z,11.30
2022-09-18T02:40:43.762Z,11.30
2022-09-18T02:43:41.957Z,11.30
2022-09-18T02:46:26.290Z,11.30
2022-09-18T02:49:34.854Z,11.20
2022-09-18T02:52:08.629Z,11.20
2022-09-18T02:54:55.109Z,11.20
2022-09-18T02:57:36.953Z,11.20
2022-09-18T03:00:06.890Z,11.10
2022-09-18T03:02:33.593Z,11.20
2022-09-18T03:05:00.266Z,11.20
2022-09-18T03:07:26.943Z,11.20
2022-09-18T03:09:53.502Z,11.10
2022-09-18T03:12:19.990Z,11.10
2022-09-18T03:14:46.510Z,11.20
2022-09-18T03:17:13.021Z,11.20
2022-09-18T03:19:39.566Z,11.20
2022-09-18T03:22:06.115Z,11.20
2022-09-18T03:24:32.825Z,11.20
2022-09-18T03:26:59.383Z,11.10
2022-09-18T03:29:25.925Z,11.20
2022-09-18T03:31:52.476Z,11.20
2022-09-18T03:34:19.362Z,11.20
2022-09-18T03:36:47.024Z,11.10
2022-09-18T03:39:16.124Z,11.30
2022-09-18T03:41:43.001Z,11.30
2022-09-18T03:44:09.601Z,11.20
2022-09-18T03:46:36.251Z,11.20
2022-09-18T03:49:02.830Z,11.20
2022-09-18T03:51:29.358Z,11.20
2022-09-18T03:53:55.974Z,11.20
2022-09-18T03:56:22.636Z,11.20
2022-09-18T03:58:49.157Z,11.20
2022-09-18T04:01:15.669Z,11.20
2022-09-18T04:03:42.176Z,11.20
2022-09-18T04:06:08.792Z,11.20
2022-09-18T04:08:35.807Z,11.20
2022-09-18T04:11:04.478Z,11.20
2022-09-18T04:13:32.606Z,11.20
2022-09-18T04:15:59.526Z,11.20
2022-09-18T04:18:26.151Z,11.20
2022-09-18T04:20:52.787Z,11.20
2022-09-18T04:23:20.472Z,11.20
2022-09-18T04:25:47.005Z,11.20
2022-09-18T04:28:13.591Z,11.20
2022-09-18T04:30:40.175Z,11.30
2022-09-18T04:33:07.900Z,11.20
2022-09-18T04:35:34.593Z,11.20
2022-09-18T04:38:01.139Z,11.30
2022-09-18T04:40:27.749Z,11.30
2022-09-18T04:42:55.521Z,11.40
2022-09-18T04:45:22.085Z,11.40
2022-09-18T04:47:49.239Z,11.40
2022-09-18T04:50:15.843Z,11.40
2022-09-18T04:52:43.119Z,11.40
2022-09-18T04:55:10.500Z,11.40
2022-09-18T04:57:37.062Z,11.40
2022-09-18T05:00:05.180Z,11.40
2022-09-18T05:02:31.849Z,11.40
2022-09-18T05:04:58.342Z,11.50
2022-09-18T05:07:24.898Z,11.40
2022-09-18T05:09:51.553Z,11.50
2022-09-18T05:12:18.074Z,11.50
2022-09-18T05:14:44.781Z,11.50
2022-09-18T05:17:11.370Z,11.60
2022-09-18T05:19:37.918Z,11.60
2022-09-18T05:22:04.681Z,11.50
2022-09-18T05:24:31.375Z,11.60
2022-09-18T05:26:57.945Z,11.60
2022-09-18T05:29:24.853Z,11.70
2022-09-18T05:31:51.505Z,11.70
2022-09-18T05:34:18.167Z,11.80
2022-09-18T05:36:46.213Z,11.80
2022-09-18T05:39:17.281Z,11.80
2022-09-18T05:41:44.617Z,11.80
2022-09-18T05:44:11.186Z,11.70
2022-09-18T05:46:37.748Z,11.70
2022-09-18T05:49:06.241Z,11.80
2022-09-18T05:51:32.806Z,11.80
2022-09-18T05:53:59.415Z,11.80
2022-09-18T05:56:27.386Z,11.70
2022-09-18T05:58:54.238Z,11.70
2022-09-18T06:01:20.870Z,11.70
2022-09-18T06:03:50.054Z,11.70
2022-09-18T06:06:16.956Z,11.80
2022-09-18T06:08:43.516Z,11.80
2022-09-18T06:11:10.145Z,11.80
2022-09-18T06:13:36.717Z,11.80
2022-09-18T06:16:03.525Z,11.90
2022-09-18T06:18:30.157Z,11.80
2022-09-18T06:20:58.246Z,11.90
2022-09-18T06:23:26.938Z,11.90
2022-09-18T06:25:58.445Z,11.90
2022-09-18T06:28:25.001Z,12.00
2022-09-18T06:30:51.674Z,12.00
2022-09-18T06:33:18.201Z,12.00
2022-09-18T06:35:48.326Z,12.00
2022-09-18T06:38:16.243Z,12.10
2022-09-18T06:40:53.283Z,12.20
2022-09-18T06:43:20.578Z,12.20
2022-09-18T06:45:57.072Z,12.20
2022-09-18T06:48:24.689Z,12.10
2022-09-18T06:50:55.797Z,12.20
2022-09-18T06:53:23.529Z,12.30
2022-09-18T06:55:50.592Z,12.30
2022-09-18T06:58:18.421Z,12.30
2022-09-18T07:00:45.911Z,12.30
2022-09-18T07:03:12.624Z,12.20
2022-09-18T07:05:42.712Z,12.30
2022-09-18T07:08:09.843Z,12.30
2022-09-18T07:10:36.669Z,12.40
2022-09-18T07:13:04.055Z,12.30
2022-09-18T07:15:31.443Z,12.30
2022-09-18T07:18:02.743Z,12.40
2022-09-18T07:20:29.628Z,12.40
2022-09-18T07:22:58.386Z,12.40
2022-09-18T07:25:26.599Z,12.50
2022-09-18T07:27:53.225Z,12.40
2022-09-18T07:30:20.940Z,12.40
2022-09-18T07:32:48.225Z,12.50
2022-09-18T07:35:14.876Z,12.50
2022-09-18T07:37:41.434Z,12.60
2022-09-18T07:40:09.562Z,12.60
2022-09-18T07:42:36.258Z,12.70
2022-09-18T07:45:03.023Z,12.70
2022-09-18T07:47:29.826Z,12.70
2022-09-18T07:49:56.465Z,12.70
2022-09-18T07:52:23.143Z,12.70
2022-09-18T07:54:49.681Z,12.70
2022-09-18T07:57:16.301Z,12.60
2022-09-18T07:59:42.818Z,12.50
2022-09-18T08:02:11.092Z,12.50
2022-09-18T08:04:37.746Z,12.50
2022-09-18T08:07:04.475Z,12.50
2022-09-18T08:09:31.129Z,12.60
2022-09-18T08:11:58.185Z,12.50
2022-09-18T08:14:28.714Z,12.30
2022-09-18T08:16:55.719Z,12.10
2022-09-18T08:19:22.242Z,11.80
2022-09-18T08:21:48.828Z,11.80
2022-09-18T08:24:17.158Z,11.70
2022-09-18T08:26:43.869Z,11.90
2022-09-18T08:29:10.478Z,11.90
2022-09-18T08:31:37.024Z,12.00
2022-09-18T08:34:03.917Z,12.00
2022-09-18T08:36:30.444Z,12.10
2022-09-18T08:38:57.090Z,12.20
2022-09-18T08:41:35.115Z,12.20
2022-09-18T08:44:14.262Z,12.10
2022-09-18T08:47:02.667Z,12.30
2022-09-18T08:49:53.270Z,12.30
2022-09-18T08:52:23.185Z,12.40
2022-09-18T08:55:00.070Z,12.50
2022-09-18T08:57:43.178Z,12.60
2022-09-18T09:00:24.917Z,12.70
2022-09-18T09:03:23.138Z,12.90
2022-09-18T09:06:14.912Z,13.10
2022-09-18T09:09:21.368Z,13.10
2022-09-18T09:12:10.080Z,13.30
2022-09-18T09:15:04.985Z,13.30
2022-09-18T09:17:40.767Z,13.30
2022-09-18T09:20:36.122Z,13.30
2022-09-18T09:23:18.239Z,13.40
2022-09-18T09:26:11.495Z,13.20
2022-09-18T09:28:59.818Z,13.30
2022-09-18T09:31:34.185Z,13.30
2022-09-18T09:34:06.205Z,13.30
2022-09-18T09:36:35.527Z,13.40
2022-09-18T09:39:23.325Z,13.50
2022-09-18T09:41:57.794Z,13.40
2022-09-18T09:44:39.298Z,13.50
2022-09-18T09:47:15.409Z,13.40
2022-09-18T09:50:09.791Z,13.40
2022-09-18T09:52:41.425Z,13.40
2022-09-18T09:55:19.066Z,13.40
2022-09-18T09:57:59.741Z,13.50
2022-09-18T10:00:26.936Z,13.50
2022-09-18T10:03:14.745Z,13.60
2022-09-18T10:06:24.761Z,13.50
2022-09-18T10:08:59.557Z,13.50
2022-09-18T10:11:26.917Z,13.60
2022-09-18T10:14:05.202Z,13.60
2022-09-18T10:16:38.335Z,13.70
2022-09-18T10:19:05.425Z,13.80
2022-09-18T10:21:36.083Z,14.00
2022-09-18T10:24:34.477Z,14.20
2022-09-18T10:27:07.237Z,14.20
2022-09-18T10:29:35.877Z,14.20
2022-09-18T10:32:04.302Z,14.30
2022-09-18T10:34:34.718Z,14.30
2022-09-18T10:37:01.732Z,14.30
2022-09-18T10:39:31.712Z,14.30
2022-09-18T10:42:04.218Z,14.40
2022-09-18T10:44:35.583Z,14.30
2022-09-18T10:47:19.393Z,14.30
2022-09-18T10:50:13.156Z,14.10
2022-09-18T10:52:39.965Z,14.00
2022-09-18T10:55:07.074Z,14.00
2022-09-18T10:57:37.894Z,13.90
2022-09-18T11:00:24.524Z,13.80
2022-09-18T11:02:56.514Z,13.80
2022-09-18T11:05:59.817Z,13.80
2022-09-18T11:08:34.225Z,13.70
2022-09-18T11:11:07.362Z,13.80
2022-09-18T11:13:44.730Z,13.80
2022-09-18T11:16:11.898Z,13.90
2022-09-18T11:18:38.589Z,14.10
2022-09-18T11:21:08.096Z,14.20
2022-09-18T11:23:37.014Z,14.10
2022-09-18T11:26:28.434Z,14.10
2022-09-18T11:29:13.300Z,14.20
2022-09-18T11:31:43.485Z,14.30
2022-09-18T11:34:36.530Z,14.30
2022-09-18T11:37:11.213Z,14.30
2022-09-18T11:39:45.744Z,14.30
2022-09-18T11:42:15.925Z,14.20
2022-09-18T11:44:43.048Z,14.20
2022-09-18T11:47:42.147Z,14.20
2022-09-18T11:50:21.807Z,14.20
2022-09-18T11:52:59.950Z,14.20
2022-09-18T11:55:39.291Z,14.30
2022-09-18T11:58:24.377Z,14.20
2022-09-18T12:01:02.975Z,14.20
2022-09-18T12:03:37.217Z,14.20
2022-09-18T12:06:21.285Z,14.20
2022-09-18T12:09:00.831Z,14.10
2022-09-18T12:11:38.307Z,14.10
2022-09-18T12:14:38.868Z,14.00
2022-09-18T12:17:17.805Z,14.10
2022-09-18T12:20:09.462Z,14.10
2022-09-18T12:22:55.441Z,14.10
2022-09-18T12:25:46.523Z,14.10
2022-09-18T12:28:38.675Z,14.10
2022-09-18T12:31:46.675Z,14.10
2022-09-18T12:34:42.310Z,14.20
2022-09-18T12:37:11.644Z,14.20
2022-09-18T12:40:07.010Z,14.20
2022-09-18T12:42:42.660Z,14.30
2022-09-18T12:45:29.836Z,14.20
2022-09-18T12:48:27.887Z,14.20
2022-09-18T12:51:00.446Z,14.30
2022-09-18T12:53:38.939Z,14.40
2022-09-18T12:56:44.461Z,14.30
2022-09-18T12:59:19.316Z,14.30
2022-09-18T13:01:54.614Z,14.30
2022-09-18T13:04:30.238Z,14.40
2022-09-18T13:07:07.552Z,14.40
2022-09-18T13:09:47.670Z,14.50
2022-09-18T13:12:30.217Z,14.40
2022-09-18T13:15:08.954Z,14.40
2022-09-18T13:17:41.869Z,14.40
2022-09-18T13:20:25.661Z,14.30
2022-09-18T13:22:54.113Z,14.30
2022-09-18T13:25:37.631Z,14.30
2022-09-18T13:28:11.388Z,14.30
2022-09-18T13:30:38.180Z,14.30
2022-09-18T13:33:05.154Z,14.30
2022-09-18T13:35:37.025Z,14.30
2022-09-18T13:38:14.486Z,14.30
2022-09-18T13:40:45.885Z,14.30
2022-09-18T13:43:27.761Z,14.30
2022-09-18T13:45:56.304Z,14.30
2022-09-18T13:48:36.101Z,14.30
2022-09-18T13:51:05.473Z,14.20
2022-09-18T13:53:41.691Z,14.30
2022-09-18T13:56:16.861Z,14.20
2022-09-18T13:58:48.749Z,14.20
2022-09-18T14:01:41.195Z,14.20
2022-09-18T14:04:43.406Z,14.20
2022-09-18T14:07:19.531Z,14.20
2022-09-18T14:10:04.273Z,14.20
2022-09-18T14:12:35.421Z,14.10
2022-09-18T14:15:06.364Z,14.20
2022-09-18T14:17:36.882Z,14.20
2022-09-18T14:20:22.273Z,14.20
2022-09-18T14:22:48.949Z,14.20
2022-09-18T14:25:43.385Z,14.20
2022-09-18T14:28:11.196Z,14.10
2022-09-18T14:30:37.712Z,14.10
2022-09-18T14:33:20.625Z,14.10
2022-09-18T14:36:05.308Z,14.10
2022-09-18T14:38:33.320Z,14.10
2022-09-18T14:41:22.043Z,14.10
2022-09-18T14:43:52.737Z,14.00
2022-09-18T14:46:21.271Z,14.10
2022-09-18T14:48:48.379Z,14.10
2022-09-18T14:51:35.071Z,14.10
2022-09-18T14:54:22.344Z,14.00
2022-09-18T14:56:51.325Z,14.10
2022-09-18T14:59:19.281Z,14.00
2022-09-18T15:01:45.882Z,14.00
2022-09-18T15:04:19.990Z,14.00
2022-09-18T15:06:50.237Z,14.00
2022-09-18T15:09:27.169Z,14.00
2022-09-18T15:12:03.229Z,14.00
2022-09-18T15:14:44.119Z,14.00
2022-09-18T15:17:33.637Z,14.00
2022-09-18T15:20:15.181Z,13.90
2022-09-18T15:22:41.965Z,13.90
2022-09-18T15:25:34.925Z,13.90
2022-09-18T15:28:06.710Z,13.90
2022-09-18T15:30:35.237Z,13.80
2022-09-18T15:33:10.956Z,13.70
2022-09-18T15:35:38.724Z,13.70
2022-09-18T15:38:16.070Z,13.80
2022-09-18T15:40:43.616Z,13.70
2022-09-18T15:43:30.450Z,13.80
2022-09-18T15:46:09.018Z,13.70
2022-09-18T15:48:48.026Z,13.70
2022-09-18T15:51:16.251Z,13.60
2022-09-18T15:54:13.109Z,13.60
2022-09-18T15:56:51.126Z,13.50
2022-09-18T15:59:31.875Z,13.50
2022-09-18T16:02:00.332Z,13.50
2022-09-18T16:04:35.106Z,13.50
2022-09-18T16:07:06.386Z,13.40
2022-09-18T16:09:40.246Z,13.40
2022-09-18T16:12:33.033Z,13.40
2022-09-18T16:15:15.800Z,13.40
2022-09-18T16:17:45.316Z,13.30
2022-09-18T16:20:29.808Z,13.30
2022-09-18T16:23:04.506Z,13.30
2022-09-18T16:25:32.154Z,13.30
2022-09-18T16:27:59.229Z,13.20
2022-09-18T16:30:27.344Z,13.10
2022-09-18T16:33:05.169Z,13.00
2022-09-18T16:35:31.705Z,12.90
2022-09-18T16:37:58.248Z,12.90
2022-09-18T16:40:27.843Z,13.00
2022-09-18T16:42:58.341Z,12.90
2022-09-18T16:45:26.894Z,12.90
2022-09-18T16:47:56.917Z,12.90
2022-09-18T16:50:26.698Z,12.80
2022-09-18T16:52:54.029Z,12.70
2022-09-18T16:55:22.473Z,12.80
2022-09-18T16:57:50.595Z,12.80
2022-09-18T17:00:17.626Z,12.70
2022-09-18T17:02:44.349Z,12.70
2022-09-18T17:05:10.985Z,12.80
2022-09-18T17:07:37.630Z,12.80
2022-09-18T17:10:04.714Z,12.80
2022-09-18T17:12:31.328Z,12.80
2022-09-18T17:14:57.988Z,12.80
2022-09-18T17:17:24.653Z,12.70
2022-09-18T17:19:51.178Z,12.60
2022-09-18T17:22:22.032Z,12.60
2022-09-18T17:24:51.155Z,12.50
2022-09-18T17:27:18.423Z,12.40
2022-09-18T17:29:45.022Z,12.40
2022-09-18T17:32:12.428Z,12.30
2022-09-18T17:34:39.102Z,12.30
2022-09-18T17:37:07.052Z,12.30
2022-09-18T17:39:33.629Z,12.30
2022-09-18T17:42:00.230Z,12.20
2022-09-18T17:44:32.003Z,12.20
2022-09-18T17:46:58.717Z,12.20
2022-09-18T17:49:26.010Z,12.20
2022-09-18T17:51:52.577Z,12.20
2022-09-18T17:54:19.221Z,12.10
2022-09-18T17:56:45.861Z,12.10
2022-09-18T17:59:13.959Z,12.10
2022-09-18T18:01:45.887Z,12.10
2022-09-18T18:04:15.981Z,12.00
2022-09-18T18:06:42.820Z,12.00
2022-09-18T18:09:09.932Z,12.00
2022-09-18T18:11:37.110Z,12.00
2022-09-18T18:14:05.161Z,12.10
2022-09-18T18:16:32.438Z,12.10
2022-09-18T18:19:02.139Z,12.10
2022-09-18T18:21:30.204Z,12.10
2022-09-18T18:23:57.646Z,12.00
2022-09-18T18:26:25.160Z,12.10
2022-09-18T18:28:51.921Z,12.00
2022-09-18T18:31:18.647Z,12.00
2022-09-18T18:33:45.273Z,12.00
2022-09-18T18:36:17.358Z,11.90
2022-09-18T18:38:45.582Z,12.00
2022-09-18T18:41:13.581Z,11.90
2022-09-18T18:43:40.932Z,11.80
2022-09-18T18:46:12.590Z,11.90
2022-09-18T18:48:40.535Z,11.80
2022-09-18T18:51:09.465Z,11.80
2022-09-18T18:53:36.654Z,11.60
2022-09-18T18:56:11.021Z,11.50
2022-09-18T18:58:37.979Z,11.40
2022-09-18T19:01:13.444Z,11.20
2022-09-18T19:03:50.732Z,11.10
2022-09-18T19:06:17.932Z,10.90
2022-09-18T19:08:46.194Z,10.80
2022-09-18T19:11:21.672Z,10.80
2022-09-18T19:13:53.960Z,10.70
2022-09-18T19:16:20.843Z,10.70
2022-09-18T19:18:59.609Z,10.70
2022-09-18T19:21:28.211Z,10.70
2022-09-18T19:23:58.620Z,10.60
2022-09-18T19:26:26.906Z,10.60
2022-09-18T19:28:58.952Z,10.50
2022-09-18T19:31:27.369Z,10.50
2022-09-18T19:33:55.022Z,10.50
2022-09-18T19:36:23.822Z,10.40
2022-09-18T19:38:55.543Z,10.40
2022-09-18T19:41:41.127Z,10.40
2022-09-18T19:44:12.460Z,10.30
2022-09-18T19:46:39.769Z,10.20
2022-09-18T19:49:12.086Z,10.30
2022-09-18T19:51:38.737Z,10.30
2022-09-18T19:54:05.414Z,10.30
2022-09-18T19:56:43.000Z,10.30
2022-09-18T19:59:10.270Z,10.30
2022-09-18T20:01:36.810Z,10.20
2022-09-18T20:04:03.635Z,10.20
2022-09-18T20:06:32.258Z,10.10
2022-09-18T20:08:59.797Z,10.10
2022-09-18T20:11:26.315Z,10.10
2022-09-18T20:13:53.485Z,10.10
2022-09-18T20:16:21.203Z,10.10
2022-09-18T20:18:47.962Z,10.10
2022-09-18T20:21:17.380Z,10.00
2022-09-18T20:23:44.685Z,9.90
2022-09-18T20:26:14.112Z,9.90
2022-09-18T20:28:41.166Z,9.90
2022-09-18T20:31:09.380Z,9.80
2022-09-18T20:33:36.406Z,9.80
2022-09-18T20:36:04.158Z,9.80
2022-09-18T20:38:36.219Z,9.80
2022-09-18T20:41:06.912Z,9.90
2022-09-18T20:43:35.708Z,9.90
2022-09-18T20:46:04.428Z,9.90
2022-09-18T20:48:33.006Z,9.80
2022-09-18T20:51:03.621Z,9.80
2022-09-18T20:53:30.124Z,9.80
2022-09-18T20:56:04.285Z,9.80
2022-09-18T20:58:35.016Z,9.80
2022-09-18T21:01:19.504Z,9.90
2022-09-18T21:03:49.049Z,9.80
2022-09-18T21:06:22.738Z,9.80
2022-09-18T21:08:53.060Z,9.90
2022-09-18T21:11:22.844Z,9.80
2022-09-18T21:13:53.463Z,9.80
2022-09-18T21:16:21.983Z,9.80
2022-09-18T21:18:49.565Z,9.70
2022-09-18T21:21:16.991Z,9.70
2022-09-18T21:24:02.173Z,9.70
2022-09-18T21:26:32.889Z,9.70
2022-09-18T21:29:06.136Z,9.70
2022-09-18T21:31:35.382Z,9.60
2022-09-18T21:34:04.336Z,9.60
2022-09-18T21:36:34.625Z,9.60
2022-09-18T21:39:01.152Z,9.50
2022-09-18T21:41:27.669Z,9.50
2022-09-18T21:43:55.223Z,9.40
2022-09-18T21:46:22.373Z,9.40
2022-09-18T21:48:54.227Z,9.30
2022-09-18T21:51:21.006Z,9.30
2022-09-18T21:53:47.593Z,9.30
2022-09-18T21:56:19.700Z,9.30
2022-09-18T21:58:47.571Z,9.40
2022-09-18T22:01:23.156Z,9.40
2022-09-18T22:03:53.254Z,9.40
2022-09-18T22:06:21.710Z,9.40
2022-09-18T22:08:50.720Z,9.50
2022-09-18T22:11:18.996Z,9.50
2022-09-18T22:13:47.025Z,9.50
2022-09-18T22:16:13.975Z,9.50
2022-09-18T22:18:41.103Z,9.50
2022-09-18T22:21:41.794Z,9.50
2022-09-18T22:24:14.085Z,9.40
2022-09-18T22:26:49.616Z,9.50
2022-09-18T22:29:22.173Z,9.50
2022-09-18T22:31:50.206Z,9.50
2022-09-18T22:34:19.685Z,9.40
2022-09-18T22:36:47.513Z,9.40
2022-09-18T22:39:15.668Z,9.40
2022-09-18T22:41:42.912Z,9.40
2022-09-18T22:44:09.806Z,9.30
2022-09-18T22:46:38.543Z,9.40
2022-09-18T22:49:06.120Z,9.40
2022-09-18T22:51:32.826Z,9.30
2022-09-18T22:54:04.527Z,9.40
2022-09-18T22:56:31.798Z,9.40
2022-09-18T22:59:01.956Z,9.40
2022-09-18T23:01:32.700Z,9.40
2022-09-18T23:04:02.406Z,9.40
2022-09-18T23:06:30.425Z,9.40
2022-09-18T23:09:00.412Z,9.40
2022-09-18T23:11:30.037Z,9.40
2022-09-18T23:14:01.258Z,9.40
2022-09-18T23:16:29.903Z,9.50
2022-09-18T23:18:59.676Z,9.40
2022-09-18T23:21:28.840Z,9.40
2022-09-18T23:23:56.013Z,9.50
2022-09-18T23:26:29.236Z,9.40
2022-09-18T23:28:58.327Z,9.40
2022-09-18T23:31:29.005Z,9.50
2022-09-18T23:34:00.314Z,9.50
2022-09-18T23:36:32.206Z,9.50
2022-09-18T23:39:22.485Z,9.50
2022-09-18T23:41:49.954Z,9.50
2022-09-18T23:44:18.218Z,9.40
2022-09-18T23:46:45.599Z,9.50
2022-09-18T23:49:13.974Z,9.50
2022-09-18T23:51:43.209Z,9.50
2022-09-18T23:54:24.674Z,9.60
2022-09-18T23:56:52.125Z,9.50
2022-09-18T23:59:22.850Z,9.50
